Lynden Pindling International Airport
MYNN : now visible

Airfield :











YOU CAN JOIN US ON...

 
LOGIN :

Register | Disclaimer

   EN    FR    IT 

 









Legend :    VFR   Marginal VFR   IFR   Intensive IFR   Very Intensive IFR
Visi :
Ceiling :
>= 8 km
>= 3000ft
5 to 8 km
1000 to 3000 ft
1500m to 5 km
500 to 1000 ft
800 to 1500m
200 to 500 ft
< 800m
< 200 ft
Symbols :   Thunderstorms  Fog  Heavy snow  Heavy precipitations  Wind > 20 kt






- Airport Elevation : 16 ft
- IATA code : NAS


MYNN - Lynden Pindling International

CURRENT METAR :
  • 260000Z 21003KT 180V240 9999 VCTS FEW016CB BKN100 BKN200 26/25 A3004 RMK CB S-SW

EXPIRED METARs :
  • 252300Z VRB01KT 9999 -SHRA SCT014CB SCT040 BKN080 27/25 A3004 RMK CB SCT ALQDS
  • 252200Z VRB02KT 9999 -SHRA FEW014CB SCT040 BKN100 26/24 A3003 RMK CB S-SW

TAF MYNN
Valid from the 25 at 18:00 until the 26 at 18:00 UTC


251655Z 2518/2618 15008KT 9999 VCTS FEW018CB SCT035 BKN200
PROB30
TEMPO 2604/2610 17012G22KT 6000 TSRA FEW015CB SCT018 BKN080
PROB30
TEMPO 2614/2618 12015KT 7000 SHRA FEW016CB BKN018 OVC100
MYNA FIR / North America



MET'MAP, your aeronautical weather chart ! - Copyright ORBIFLY December 2007 - Disclaimer

ORBIFLY MET'MAP TEAM :

Programming & Development : Alexandra Zaïnal
Concept & original design : Baudouin d'Aumeries
Assistance for programming : Marc-Olivier Méhu
Technical & hardware support : Manuel Goepfert

Contact : metmap@orbifly.com




SOURCES & CREDITS :

   NOAA       Earth
Advisory